Time;durP1;ratioP1;P1;durP2;ratioP2;P2;SDS_P1;SDS_P2;PMS_P1;PMS_P2;Temp;Humidity;BMP_temperature;BMP_pressure;BME280_temperature;BME280_humidity;BME280_pressure;Samples;Min_cycle;Max_cycle;Signal;HPM_P1;HPM_P2
2023/01/05 00:00:10;;;;;;;17.67;4.70;;;;;;;8.11;93.50;98451.44;5028125;28;20529;-79
2023/01/05 00:02:35;;;;;;;13.60;4.75;;;;;;;8.13;93.18;98450.16;5008458;28;20030;-79
2023/01/05 00:05:01;;;;;;;13.70;4.55;;;;;;;8.04;92.83;98434.84;5025072;28;20394;-80
2023/01/05 00:07:26;;;;;;;17.17;3.63;;;;;;;8.23;92.96;98444.19;4993990;28;20028;-80
2023/01/05 00:09:51;;;;;;;26.52;6.30;;;;;;;8.16;92.39;98455.00;5027999;28;20481;-80
2023/01/05 00:23:13;;;;;;;15.52;3.90;;;;;;;8.29;92.92;98468.00;5045358;28;20086;-79
2023/01/05 00:25:39;;;;;;;20.45;4.55;;;;;;;8.30;92.24;98460.81;5025798;28;20029;-79
2023/01/05 00:28:05;;;;;;;19.10;4.38;;;;;;;8.30;92.53;98469.59;5026849;28;20029;-79
2023/01/05 00:30:36;;;;;;;22.88;5.10;;;;;;;8.32;92.70;98456.06;5020863;28;20167;-80
2023/01/05 00:33:01;;;;;;;14.35;5.03;;;;;;;8.39;92.11;98453.25;5040645;28;20043;-80
2023/01/05 00:35:28;;;;;;;13.10;3.72;;;;;;;8.39;92.42;98456.69;5009080;28;20396;-79
2023/01/05 00:37:53;;;;;;;18.73;5.28;;;;;;;8.19;92.56;98441.19;5026756;28;20025;-79
2023/01/05 00:40:20;;;;;;;19.60;4.38;;;;;;;8.28;93.41;98453.06;5022514;28;20026;-80
2023/01/05 00:42:46;;;;;;;12.25;3.80;;;;;;;8.23;92.86;98444.19;5017428;28;20176;-79
2023/01/05 00:45:14;;;;;;;13.10;4.47;;;;;;;8.24;93.34;98461.75;4991454;28;20142;-79
2023/01/05 00:47:39;;;;;;;16.33;5.03;;;;;;;8.31;92.12;98462.44;5002835;28;20037;-79
2023/01/05 00:50:06;;;;;;;22.27;3.15;;;;;;;8.23;92.18;98457.50;5025139;28;20072;-79
2023/01/05 00:52:31;;;;;;;25.85;4.85;;;;;;;8.22;90.94;98469.97;5025451;28;20036;-80
2023/01/05 00:54:57;;;;;;;13.43;4.15;;;;;;;8.37;91.85;98473.94;5007931;28;20511;-79
2023/01/05 00:57:22;;;;;;;11.43;3.95;;;;;;;8.35;91.55;98466.19;5022183;28;20029;-79
2023/01/05 00:59:47;;;;;;;25.17;6.03;;;;;;;8.30;90.83;98458.94;4990722;28;20120;-79
2023/01/05 01:02:13;;;;;;;17.67;3.20;;;;;;;8.30;90.66;98458.13;5022217;28;20037;-79
2023/01/05 01:04:39;;;;;;;18.48;4.60;;;;;;;8.38;91.56;98467.56;5022866;28;20025;-79
2023/01/05 01:07:04;;;;;;;8.43;4.13;;;;;;;8.30;91.28;98472.25;5023643;28;20039;-78
2023/01/05 01:09:30;;;;;;;19.15;5.07;;;;;;;8.28;91.61;98478.84;5021319;28;20029;-79
2023/01/05 01:11:55;;;;;;;17.98;4.80;;;;;;;8.40;91.28;98481.44;5018488;28;20044;-80
2023/01/05 01:14:21;;;;;;;13.35;4.13;;;;;;;8.40;91.40;98476.94;5019692;28;20032;-80
2023/01/05 01:16:46;;;;;;;21.83;4.75;;;;;;;8.37;91.28;98477.41;5008393;28;20501;-80
2023/01/05 01:19:14;;;;;;;19.90;4.50;;;;;;;8.41;91.87;98491.81;5004607;28;20033;-80
2023/01/05 01:21:40;;;;;;;19.00;5.20;;;;;;;8.32;92.31;98474.69;4998963;28;20036;-79
2023/01/05 01:24:05;;;;;;;21.80;5.47;;;;;;;8.40;91.79;98514.16;5025189;28;20746;-80
2023/01/05 01:26:31;;;;;;;7.70;3.05;;;;;;;8.44;91.50;98515.28;5022682;28;20130;-80
2023/01/05 01:28:56;;;;;;;15.35;3.85;;;;;;;8.17;92.47;98490.34;5025362;28;20096;-80
2023/01/05 01:31:22;;;;;;;11.07;3.50;;;;;;;8.17;93.15;98511.59;5004677;28;21197;-80
2023/01/05 01:33:47;;;;;;;20.88;5.45;;;;;;;8.25;92.81;98513.88;5008067;28;20034;-79
2023/01/05 01:36:12;;;;;;;24.50;5.15;;;;;;;8.17;92.73;98511.59;4999827;28;20120;-81
2023/01/05 01:38:38;;;;;;;11.18;4.00;;;;;;;8.22;92.89;98515.16;5016469;28;20037;-81
2023/01/05 01:41:03;;;;;;;18.52;4.97;;;;;;;8.18;92.72;98514.03;5021124;28;20041;-80
2023/01/05 01:43:42;;;;;;;16.58;5.00;;;;;;;8.13;92.82;98499.84;5015264;28;20080;-81
2023/01/05 01:46:08;;;;;;;15.30;4.70;;;;;;;8.13;93.25;98505.97;5023243;28;20040;-81
2023/01/05 01:48:37;;;;;;;22.30;6.28;;;;;;;8.16;93.24;98518.78;5026215;28;20032;-81
2023/01/05 01:51:09;;;;;;;15.23;3.90;;;;;;;8.09;92.66;98518.13;5039464;28;20109;-81
2023/01/05 01:53:41;;;;;;;14.55;4.95;;;;;;;8.09;92.68;98509.34;5001964;28;20057;-81
2023/01/05 01:56:10;;;;;;;11.68;5.13;;;;;;;8.22;92.48;98525.81;5023838;28;20565;-79
2023/01/05 01:58:36;;;;;;;18.75;5.35;;;;;;;8.11;92.71;98523.19;5025217;28;20470;-81
2023/01/05 02:01:02;;;;;;;21.70;6.82;;;;;;;8.13;93.09;98532.56;5021020;28;20646;-81
2023/01/05 02:03:29;;;;;;;14.23;4.70;;;;;;;8.18;91.97;98534.50;5025364;28;20036;-80
2023/01/05 02:05:54;;;;;;;16.77;6.65;;;;;;;8.09;92.40;98528.78;5009122;28;20033;-80
2023/01/05 02:08:24;;;;;;;19.60;6.35;;;;;;;8.18;92.48;98530.00;5026268;28;20493;-80
2023/01/05 02:11:14;;;;;;;17.27;5.95;;;;;;;8.09;91.99;98523.44;5009112;28;20029;-80
2023/01/05 02:13:48;;;;;;;13.10;6.72;;;;;;;8.04;91.53;98523.34;5027051;28;20072;-80
2023/01/05 02:16:42;;;;;;;26.38;8.38;;;;;;;8.15;91.73;98532.31;5028093;28;20477;-80
2023/01/05 02:19:22;;;;;;;16.40;4.80;;;;;;;8.12;92.08;98538.94;4992195;28;20116;-81
2023/01/05 02:22:12;;;;;;;20.45;7.05;;;;;;;8.22;92.16;98536.44;5030471;28;20044;-81
2023/01/05 02:24:46;;;;;;;21.58;6.60;;;;;;;8.04;90.82;98538.50;5028725;28;20025;-81
2023/01/05 02:27:44;;;;;;;36.75;7.28;;;;;;;8.11;91.85;98536.50;5030158;28;20033;-79
2023/01/05 02:30:49;;;;;;;21.30;6.88;;;;;;;8.08;92.46;98529.03;5026527;28;20021;-81
2023/01/05 02:33:30;;;;;;;20.67;6.05;;;;;;;8.19;92.10;98530.81;5024103;28;20029;-80
2023/01/05 02:35:55;;;;;;;26.27;5.65;;;;;;;8.19;91.46;98528.16;5026131;28;20033;-81
2023/01/05 02:38:44;;;;;;;19.15;7.63;;;;;;;8.27;91.50;98527.78;5027525;28;20025;-81
2023/01/05 02:41:34;;;;;;;19.63;7.05;;;;;;;8.18;90.53;98515.88;5020016;28;20033;-79
2023/01/05 02:44:01;;;;;;;14.82;5.60;;;;;;;8.04;91.35;98511.91;5023503;28;20600;-80
2023/01/05 02:46:26;;;;;;;21.40;8.00;;;;;;;8.13;91.80;98523.78;5027576;28;20067;-81
2023/01/05 02:48:55;;;;;;;18.42;5.50;;;;;;;8.24;91.54;98526.38;5024086;28;20843;-81
2023/01/05 02:51:32;;;;;;;26.25;7.40;;;;;;;8.04;90.20;98510.06;5006437;28;20493;-81
2023/01/05 02:54:03;;;;;;;27.05;6.32;;;;;;;8.17;91.92;98525.72;5024602;28;20029;-79
2023/01/05 02:56:37;;;;;;;20.02;6.30;;;;;;;8.11;91.78;98512.56;5027576;28;20033;-80
2023/01/05 02:59:17;;;;;;;21.77;6.45;;;;;;;8.19;91.68;98518.28;5029349;28;20056;-81
2023/01/05 03:01:49;;;;;;;9.25;3.22;;;;;;;8.16;91.05;98512.66;5025796;28;20493;-80
2023/01/05 03:04:22;;;;;;;22.77;6.65;;;;;;;8.11;90.36;98515.22;5025779;28;20040;-80
2023/01/05 03:06:56;;;;;;;24.23;6.60;;;;;;;8.06;90.95;98523.91;5026781;28;20079;-80
2023/01/05 03:09:26;;;;;;;12.13;5.90;;;;;;;8.14;90.79;98520.06;5021977;28;20025;-79
2023/01/05 03:15:18;;;;;;;16.40;4.90;;;;;;;8.22;90.29;98525.00;5026192;28;20192;-81
2023/01/05 03:17:54;;;;;;;23.13;7.32;;;;;;;8.32;90.71;98546.47;5025252;28;20036;-81
2023/01/05 03:20:22;;;;;;;;;;;;;;;8.23;89.95;98529.28;5024280;28;20037;-81
2023/01/05 03:37:20;;;;;;;22.23;5.97;;;;;;;8.09;89.13;98539.41;5027129;28;20090;-79
2023/01/05 03:39:46;;;;;;;16.52;5.45;;;;;;;8.12;89.09;98535.47;5024378;28;20370;-79
2023/01/05 03:42:13;;;;;;;18.10;4.95;;;;;;;8.12;88.47;98533.63;5017984;28;20120;-79
2023/01/05 03:44:42;;;;;;;19.02;5.68;;;;;;;7.99;89.70;98523.28;5023898;28;20110;-79
2023/01/05 03:47:07;;;;;;;24.92;6.20;;;;;;;8.00;88.93;98526.72;5026720;28;20041;-79
2023/01/05 03:49:32;;;;;;;15.15;5.30;;;;;;;8.06;89.59;98528.47;5021718;28;20032;-79
2023/01/05 03:51:58;;;;;;;16.13;5.03;;;;;;;7.99;89.19;98544.56;5024714;28;20037;-79
2023/01/05 03:54:23;;;;;;;13.40;3.78;;;;;;;8.06;89.67;98539.09;5022803;28;20025;-81
2023/01/05 03:56:49;;;;;;;24.80;5.45;;;;;;;8.02;89.30;98533.44;5022560;28;20340;-80
2023/01/05 03:59:14;;;;;;;18.38;5.47;;;;;;;8.04;88.63;98539.31;5024945;28;20033;-79
2023/01/05 04:01:39;;;;;;;14.60;5.00;;;;;;;7.96;89.10;98528.25;5021859;28;20478;-80
2023/01/05 04:04:05;;;;;;;17.30;4.40;;;;;;;7.86;88.94;98544.03;5023429;28;20036;-80
2023/01/05 04:06:30;;;;;;;9.27;3.45;;;;;;;7.96;88.51;98542.38;5010197;28;20521;-79
2023/01/05 04:08:55;;;;;;;21.17;5.07;;;;;;;7.92;89.57;98554.53;5020537;28;20041;-79
2023/01/05 04:11:22;;;;;;;15.55;5.07;;;;;;;7.80;88.49;98537.03;5023493;28;20021;-79
2023/01/05 04:13:48;;;;;;;13.20;4.47;;;;;;;7.96;89.24;98550.34;5021647;28;20112;-78
2023/01/05 04:16:13;;;;;;;15.82;5.57;;;;;;;7.97;88.40;98541.28;5025344;28;20557;-78
2023/01/05 04:18:39;;;;;;;19.45;5.07;;;;;;;7.93;89.20;98550.00;5028798;28;20029;-79
2023/01/05 04:21:05;;;;;;;16.35;5.90;;;;;;;8.03;88.28;98558.16;5028030;28;20082;-78
2023/01/05 04:23:31;;;;;;;18.00;5.43;;;;;;;8.03;88.99;98552.84;5027023;28;20033;-78
2023/01/05 04:25:56;;;;;;;19.48;5.97;;;;;;;7.96;88.16;98557.50;5026688;28;20032;-79
2023/01/05 04:28:21;;;;;;;16.45;5.45;;;;;;;8.12;88.79;98562.03;5026685;28;20061;-78
2023/01/05 04:30:55;;;;;;;19.63;6.38;;;;;;;8.05;88.33;98570.16;5021798;28;20103;-79
2023/01/05 04:33:21;;;;;;;22.15;5.88;;;;;;;8.16;89.17;98579.94;5021840;28;20034;-79
2023/01/05 04:35:47;;;;;;;17.85;5.93;;;;;;;8.22;88.86;98580.81;5024365;28;20029;-79
2023/01/05 04:38:13;;;;;;;14.40;5.00;;;;;;;8.20;88.20;98573.09;5025890;28;20021;-80
2023/01/05 04:40:38;;;;;;;20.67;6.68;;;;;;;8.07;88.09;98567.25;5024617;28;20386;-79
2023/01/05 04:43:05;;;;;;;18.67;5.82;;;;;;;8.25;88.72;98586.50;5017252;28;20072;-79
2023/01/05 04:45:32;;;;;;;20.10;6.50;;;;;;;8.22;88.92;98580.81;5007493;28;20052;-80
2023/01/05 04:47:57;;;;;;;18.27;6.82;;;;;;;8.16;88.01;98577.28;5020726;28;20057;-79
2023/01/05 04:50:23;;;;;;;19.40;4.68;;;;;;;8.16;88.84;98571.97;5004382;28;20119;-79
2023/01/05 04:52:48;;;;;;;11.68;4.75;;;;;;;8.08;88.26;98571.53;5021048;28;20025;-80
2023/01/05 04:55:14;;;;;;;28.00;6.75;;;;;;;8.08;88.47;98584.84;5020278;28;20025;-79
2023/01/05 04:57:39;;;;;;;22.25;6.13;;;;;;;8.15;87.75;98601.41;4988331;28;20037;-78
2023/01/05 05:00:05;;;;;;;20.63;5.43;;;;;;;8.17;87.63;98589.50;5018584;28;20029;-79
2023/01/05 05:02:31;;;;;;;20.45;5.38;;;;;;;8.24;88.08;98597.34;5023982;28;20471;-80
2023/01/05 05:04:56;;;;;;;20.95;5.63;;;;;;;8.07;88.07;98575.22;5039170;28;20033;-79
2023/01/05 05:07:22;;;;;;;16.38;5.35;;;;;;;8.10;88.97;98606.66;5025202;28;20447;-78
2023/01/05 05:09:47;;;;;;;14.68;6.15;;;;;;;8.11;88.33;98587.81;5018517;28;20032;-78
2023/01/05 05:12:13;;;;;;;17.02;5.57;;;;;;;8.12;88.50;98596.59;5016666;28;20405;-78
2023/01/05 05:14:38;;;;;;;20.80;6.32;;;;;;;8.04;87.15;98603.09;5001445;28;20216;-80
2023/01/05 05:17:04;;;;;;;15.95;6.75;;;;;;;8.13;89.10;98617.63;5023987;28;20041;-80
2023/01/05 05:19:30;;;;;;;22.50;6.00;;;;;;;8.10;87.31;98614.63;5018360;28;20032;-80
2023/01/05 05:21:55;;;;;;;28.40;5.55;;;;;;;8.14;87.96;98621.09;5021933;28;20052;-80
2023/01/05 05:24:21;;;;;;;17.40;4.22;;;;;;;8.25;88.00;98623.72;5024469;28;20025;-79
2023/01/05 05:26:46;;;;;;;26.85;6.25;;;;;;;8.21;87.61;98627.84;5028786;28;20034;-79
2023/01/05 05:29:12;;;;;;;23.40;6.55;;;;;;;8.25;88.31;98628.19;5023750;28;20045;-80
2023/01/05 05:31:37;;;;;;;9.18;4.93;;;;;;;8.27;87.70;98626.97;5023965;28;20041;-79
2023/01/05 05:34:02;;;;;;;19.85;4.47;;;;;;;8.23;88.35;98617.78;5005975;28;20044;-79
2023/01/05 05:36:28;;;;;;;12.15;5.55;;;;;;;8.25;87.47;98628.19;5018708;28;20037;-78
2023/01/05 05:38:53;;;;;;;17.40;5.10;;;;;;;8.03;87.39;98608.66;5024145;28;20038;-79
2023/01/05 05:41:19;;;;;;;17.55;3.35;;;;;;;8.10;86.60;98611.97;5021385;28;20034;-79
2023/01/05 05:43:44;;;;;;;18.23;5.55;;;;;;;7.93;86.86;98613.78;5002038;28;20425;-79
2023/01/05 05:46:09;;;;;;;15.55;5.30;;;;;;;7.88;88.03;98619.00;5008949;28;20408;-79
2023/01/05 05:48:35;;;;;;;16.67;5.22;;;;;;;7.77;88.42;98612.69;4994392;28;20026;-79
2023/01/05 05:51:00;;;;;;;17.98;5.47;;;;;;;7.77;89.38;98625.16;5026078;28;20022;-79
2023/01/05 05:53:25;;;;;;;16.52;5.55;;;;;;;7.69;89.40;98625.53;5025484;28;21021;-79
2023/01/05 05:55:51;;;;;;;25.63;6.40;;;;;;;7.71;88.63;98631.41;4996264;28;20033;-79
2023/01/05 05:58:17;;;;;;;13.32;5.18;;;;;;;7.74;89.37;98631.75;5012870;28;20044;-80
2023/01/05 06:00:43;;;;;;;15.13;5.60;;;;;;;7.68;89.79;98629.22;5023169;28;20032;-79
2023/01/05 06:03:08;;;;;;;17.67;4.75;;;;;;;7.73;89.93;98650.56;5024541;28;20033;-78
2023/01/05 06:05:34;;;;;;;32.83;5.68;;;;;;;7.70;90.08;98649.19;5032770;28;20033;-79
2023/01/05 06:07:59;;;;;;;22.45;5.25;;;;;;;7.63;89.43;98639.72;5029369;28;20040;-80
2023/01/05 06:10:25;;;;;;;20.38;5.32;;;;;;;7.69;89.18;98647.56;5029039;28;20068;-78
2023/01/05 06:12:52;;;;;;;14.70;5.15;;;;;;;7.69;90.28;98649.44;5027169;28;20370;-79
2023/01/05 06:15:18;;;;;;;15.52;4.65;;;;;;;7.67;89.81;98664.78;5025053;28;20030;-78
2023/01/05 06:17:44;;;;;;;11.57;2.83;;;;;;;7.71;89.42;98664.06;5024345;28;20030;-78
2023/01/05 06:20:10;;;;;;;10.32;4.28;;;;;;;7.62;89.96;98670.81;5028966;28;20037;-78
2023/01/05 06:22:35;;;;;;;24.85;5.95;;;;;;;7.62;90.36;98665.50;5011221;28;20030;-79
2023/01/05 06:25:01;;;;;;;15.13;4.55;;;;;;;7.60;89.68;98664.91;5032106;28;20440;-78
2023/01/05 06:27:26;;;;;;;13.18;4.47;;;;;;;7.65;89.50;98665.00;5049204;28;20037;-79
2023/01/05 06:29:52;;;;;;;8.90;2.78;;;;;;;7.50;90.25;98667.34;5028879;28;20037;-78
2023/01/05 06:32:17;;;;;;;11.85;4.50;;;;;;;7.45;90.11;98653.97;5038826;28;20030;-78
2023/01/05 06:34:42;;;;;;;16.23;4.32;;;;;;;7.55;90.55;98678.91;5028214;28;20029;-78
2023/01/05 06:37:08;;;;;;;11.27;3.38;;;;;;;7.62;89.52;98688.59;5011924;28;20125;-78
2023/01/05 06:39:33;;;;;;;14.57;3.08;;;;;;;7.55;90.51;98686.06;5026391;28;20029;-80
2023/01/05 06:41:58;;;;;;;13.23;3.63;;;;;;;7.56;90.53;98682.34;5024392;28;20120;-80
2023/01/05 06:44:24;;;;;;;16.75;3.92;;;;;;;7.47;90.46;98679.25;5023018;28;20029;-81
2023/01/05 06:46:49;;;;;;;16.25;4.90;;;;;;;7.56;90.38;98692.97;5008859;28;20416;-80
2023/01/05 06:49:14;;;;;;;14.35;4.20;;;;;;;7.55;90.60;98684.22;5025232;28;20037;-80
2023/01/05 06:51:40;;;;;;;17.45;5.93;;;;;;;7.57;90.35;98695.41;5009945;28;20029;-79
2023/01/05 06:54:06;;;;;;;13.80;4.07;;;;;;;7.65;90.12;98696.06;5036382;28;20041;-79
2023/01/05 06:56:31;;;;;;;15.00;5.72;;;;;;;7.57;90.90;98705.22;5030814;28;20033;-80
2023/01/05 06:58:57;;;;;;;18.60;4.95;;;;;;;7.67;90.75;98699.31;5028432;28;20057;-81
2023/01/05 07:01:22;;;;;;;14.75;4.68;;;;;;;7.56;90.80;98704.41;5029748;28;20034;-81
2023/01/05 07:03:47;;;;;;;14.57;3.67;;;;;;;7.55;90.97;98715.28;5028760;28;20025;-80
2023/01/05 07:06:14;;;;;;;11.43;4.07;;;;;;;7.49;90.75;98716.22;5010528;28;20033;-80
2023/01/05 07:08:39;;;;;;;13.75;4.68;;;;;;;7.56;90.59;98716.88;4999748;28;20061;-80
2023/01/05 07:11:05;;;;;;;14.55;3.83;;;;;;;7.55;91.24;98717.94;5015194;28;20041;-81
2023/01/05 07:13:30;;;;;;;9.90;4.88;;;;;;;7.46;91.39;98709.50;5025939;28;20116;-80
2023/01/05 07:15:55;;;;;;;12.30;5.35;;;;;;;7.55;91.36;98712.63;5011184;28;20037;-80
2023/01/05 07:18:21;;;;;;;19.23;5.20;;;;;;;7.60;91.10;98727.84;5025967;28;20026;-80
2023/01/05 07:20:46;;;;;;;12.95;5.07;;;;;;;7.50;91.32;98744.38;5027918;28;20037;-81
2023/01/05 07:23:11;;;;;;;6.10;2.95;;;;;;;7.50;91.80;98721.28;4997936;28;20025;-81
2023/01/05 07:25:37;;;;;;;18.77;4.47;;;;;;;7.41;92.27;98721.84;4986729;28;20072;-82
2023/01/05 07:28:02;;;;;;;12.52;4.20;;;;;;;7.49;92.25;98742.75;5018350;28;20041;-81
2023/01/05 07:30:28;;;;;;;12.00;4.75;;;;;;;7.50;92.48;98739.88;5000436;28;22311;-81
2023/01/05 07:32:58;;;;;;;18.67;6.97;;;;;;;7.66;92.09;98732.22;5006331;28;20092;-80
2023/01/05 07:35:23;;;;;;;13.55;4.95;;;;;;;7.55;93.05;98741.84;5028228;28;20559;-81
2023/01/05 07:37:48;;;;;;;23.25;7.78;;;;;;;7.54;92.23;98733.06;5017153;28;20064;-80
2023/01/05 07:40:14;;;;;;;15.68;7.63;;;;;;;7.56;92.92;98749.56;5023093;28;20033;-80
2023/01/05 07:42:39;;;;;;;13.57;6.72;;;;;;;7.65;92.52;98759.81;4992020;28;20032;-80
2023/01/05 07:45:05;;;;;;;15.73;6.95;;;;;;;7.39;93.19;98743.31;5009067;28;20030;-79
2023/01/05 07:47:31;;;;;;;16.15;7.50;;;;;;;7.47;92.93;98752.78;5010009;28;20115;-79
2023/01/05 07:49:56;;;;;;;17.65;7.20;;;;;;;7.45;93.30;98758.31;5010137;28;20436;-79
2023/01/05 07:52:22;;;;;;;27.95;7.93;;;;;;;7.45;93.02;98753.03;5023973;28;20037;-78
2023/01/05 07:54:47;;;;;;;18.40;7.57;;;;;;;7.54;92.32;98778.19;5025302;28;20030;-79
2023/01/05 07:57:13;;;;;;;29.85;7.50;;;;;;;7.50;92.94;98761.09;5010224;28;20466;-80
2023/01/05 07:59:38;;;;;;;17.27;6.82;;;;;;;7.40;92.62;98744.13;5016516;28;20322;-80
2023/01/05 08:02:04;;;;;;;16.20;7.20;;;;;;;7.38;93.37;98773.56;5023703;28;20048;-80
2023/01/05 08:04:29;;;;;;;18.85;6.90;;;;;;;7.63;92.64;98783.16;5028711;28;20369;-80
2023/01/05 08:06:55;;;;;;;17.50;6.05;;;;;;;7.51;93.43;98767.25;5052802;28;20044;-80
2023/01/05 08:12:04;;;;;;;12.82;6.13;;;;;;;7.26;93.95;98767.44;5022350;28;20040;-80
2023/01/05 08:14:30;;;;;;;17.48;7.75;;;;;;;7.37;94.33;98782.56;5025834;28;20037;-80
2023/01/05 08:16:55;;;;;;;18.70;7.78;;;;;;;7.41;94.38;98789.03;5010640;28;20060;-80
2023/01/05 08:19:20;;;;;;;16.95;6.13;;;;;;;7.43;94.27;98796.75;5026153;28;20076;-80
2023/01/05 08:21:46;;;;;;;19.27;7.95;;;;;;;7.39;94.25;98795.63;5028569;28;20033;-79
2023/01/05 08:24:11;;;;;;;21.05;6.40;;;;;;;7.24;93.78;98811.16;5003887;28;20661;-79
2023/01/05 08:26:37;;;;;;;18.40;8.32;;;;;;;7.32;94.44;98801.03;5022987;28;20132;-78
2023/01/05 08:29:02;;;;;;;20.55;7.55;;;;;;;7.38;93.85;98808.06;5024038;28;20160;-79
2023/01/05 08:31:29;;;;;;;19.15;6.43;;;;;;;7.38;93.99;98805.41;5007180;28;20033;-78
2023/01/05 08:33:58;;;;;;;13.75;6.03;;;;;;;7.40;93.17;98808.66;5031602;28;20033;-78
2023/01/05 08:36:24;;;;;;;16.92;6.10;;;;;;;7.46;93.66;98805.09;5010542;28;20052;-78
2023/01/05 08:38:51;;;;;;;20.27;5.53;;;;;;;7.48;93.12;98820.78;5025480;28;20052;-78
2023/01/05 08:41:26;;;;;;;18.50;6.72;;;;;;;7.48;94.10;98808.34;5026224;28;20485;-78
2023/01/05 08:43:54;;;;;;;15.52;7.18;;;;;;;7.52;92.69;98817.44;5037677;28;20405;-78
2023/01/05 08:46:21;;;;;;;10.50;4.97;;;;;;;7.46;93.54;98826.34;5027041;28;20025;-78
2023/01/05 08:48:48;;;;;;;20.15;5.72;;;;;;;7.46;93.22;98831.66;5027751;28;20124;-78
2023/01/05 08:51:14;;;;;;;15.95;6.57;;;;;;;7.40;94.15;98827.22;5026364;28;20037;-78
2023/01/05 08:53:39;;;;;;;18.15;6.45;;;;;;;7.36;93.54;98831.38;5009898;28;20087;-78
2023/01/05 08:56:05;;;;;;;15.52;6.25;;;;;;;7.34;93.72;98828.16;5033975;28;20116;-78
2023/01/05 08:58:30;;;;;;;16.58;6.18;;;;;;;7.37;93.71;98840.16;5028521;28;20494;-78
2023/01/05 09:00:56;;;;;;;16.77;5.72;;;;;;;7.45;93.33;98859.22;5008773;28;20405;-80
2023/01/05 09:03:21;;;;;;;19.15;7.05;;;;;;;7.51;93.69;98849.56;5026620;28;20504;-79
2023/01/05 09:05:46;;;;;;;15.00;5.43;;;;;;;7.44;94.39;98848.84;5028139;28;20401;-79
2023/01/05 09:08:12;;;;;;;22.98;7.93;;;;;;;7.51;93.69;98852.22;5045944;28;20029;-79
2023/01/05 09:10:37;;;;;;;20.52;6.57;;;;;;;7.60;93.09;98853.47;5028103;28;20025;-79
2023/01/05 09:13:02;;;;;;;18.50;5.68;;;;;;;7.66;92.63;98857.06;5012587;28;20120;-80
2023/01/05 09:15:28;;;;;;;16.77;7.15;;;;;;;7.62;93.31;98861.22;5012299;28;20417;-79
2023/01/05 09:17:53;;;;;;;21.73;7.50;;;;;;;7.64;93.17;98862.63;5034217;28;20021;-80
2023/01/05 09:20:18;;;;;;;16.92;6.78;;;;;;;7.55;93.06;98861.34;5014663;28;20392;-79
2023/01/05 09:22:44;;;;;;;28.55;6.68;;;;;;;7.57;93.43;98865.38;5029801;28;20120;-79
2023/01/05 09:25:10;;;;;;;14.52;5.72;;;;;;;7.56;93.26;98866.41;5032002;28;20041;-80
2023/01/05 09:27:35;;;;;;;7.05;3.03;;;;;;;7.58;93.43;98880.28;5034111;28;20104;-79
2023/01/05 09:30:02;;;;;;;20.63;6.15;;;;;;;7.56;93.24;98879.69;5035735;28;20043;-79
2023/01/05 09:32:27;;;;;;;15.35;6.80;;;;;;;7.64;92.54;98885.72;5035290;28;20037;-79
2023/01/05 09:34:52;;;;;;;18.27;5.22;;;;;;;7.61;92.42;98871.03;5037666;28;20093;-79
2023/01/05 09:37:18;;;;;;;17.52;5.75;;;;;;;7.70;92.71;98884.78;5017342;28;20154;-80
2023/01/05 09:39:43;;;;;;;14.57;4.68;;;;;;;7.73;93.07;98885.16;5030499;28;20025;-80
2023/01/05 09:42:16;;;;;;;18.33;5.45;;;;;;;7.67;92.47;98895.88;5031969;28;20033;-81
2023/01/05 09:44:46;;;;;;;16.73;5.05;;;;;;;7.69;92.05;98899.13;5033206;28;20021;-80
2023/01/05 09:47:35;;;;;;;22.98;5.10;;;;;;;7.71;92.50;98894.41;5035826;28;20393;-79
2023/01/05 09:50:01;;;;;;;17.80;5.95;;;;;;;7.77;92.26;98899.59;5034643;28;20040;-80
2023/01/05 09:52:27;;;;;;;18.60;5.75;;;;;;;7.76;92.07;98905.13;5019937;28;20037;-80
2023/01/05 09:54:52;;;;;;;21.73;5.68;;;;;;;7.85;92.43;98906.41;5026814;28;20115;-80
2023/01/05 09:57:21;;;;;;;17.02;6.07;;;;;;;7.71;91.66;98907.69;5033316;28;20481;-79
2023/01/05 09:59:57;;;;;;;15.48;5.47;;;;;;;7.77;92.27;98912.88;5034976;28;20432;-80
2023/01/05 10:02:22;;;;;;;17.05;5.35;;;;;;;7.77;92.31;98904.91;5015026;28;20603;-81
2023/01/05 10:04:50;;;;;;;19.23;6.07;;;;;;;7.79;92.25;98920.63;5032105;28;20064;-79
2023/01/05 10:07:42;;;;;;;10.90;4.90;;;;;;;7.74;92.12;98910.69;5035093;28;20107;-79
2023/01/05 10:10:30;;;;;;;14.95;4.57;;;;;;;7.77;92.25;98912.88;5026164;28;20053;-80
2023/01/05 10:13:10;;;;;;;18.08;4.75;;;;;;;7.89;91.92;98919.03;5030437;28;20040;-80
2023/01/05 10:15:51;;;;;;;17.05;5.72;;;;;;;7.84;91.36;98923.41;5033149;28;20025;-80
2023/01/05 10:18:21;;;;;;;19.35;5.05;;;;;;;7.91;91.08;98916.13;5032601;28;20103;-80
2023/01/05 10:21:12;;;;;;;20.25;5.22;;;;;;;7.90;91.74;98927.81;5034674;28;20041;-79
2023/01/05 10:24:06;;;;;;;18.67;5.63;;;;;;;8.03;91.22;98931.06;5033152;28;20436;-80
2023/01/05 10:27:02;;;;;;;16.60;5.82;;;;;;;7.93;91.14;98930.81;5035039;28;20044;-79
2023/01/05 10:29:46;;;;;;;13.00;4.63;;;;;;;7.92;91.60;98921.22;5048831;28;20029;-79
2023/01/05 10:32:49;;;;;;;14.27;6.35;;;;;;;7.82;91.27;98936.13;5031140;28;20269;-80
2023/01/05 10:35:36;;;;;;;16.15;4.38;;;;;;;7.82;91.54;98930.81;5025454;28;20075;-79
2023/01/05 10:38:19;;;;;;;20.45;5.43;;;;;;;7.71;92.60;98928.94;5027446;28;20091;-79
2023/01/05 10:41:23;;;;;;;10.65;3.83;;;;;;;7.86;92.55;98947.91;5031319;28;20745;-79
2023/01/05 10:44:12;;;;;;;16.60;4.60;;;;;;;7.87;92.61;98944.19;4997183;28;20492;-79
2023/01/05 10:46:41;;;;;;;16.48;5.68;;;;;;;7.86;92.67;98953.22;5026451;28;20052;-80
2023/01/05 10:49:08;;;;;;;14.43;4.72;;;;;;;7.88;93.44;98943.16;5012717;28;20083;-80
2023/01/05 10:51:35;;;;;;;17.90;6.07;;;;;;;7.91;92.57;98954.13;5028192;28;20025;-79
2023/01/05 10:54:02;;;;;;;15.77;5.50;;;;;;;7.87;92.60;98954.81;5030052;28;20492;-79
2023/01/05 10:56:28;;;;;;;14.60;5.82;;;;;;;7.81;93.19;98947.78;5028725;28;20103;-79
2023/01/05 10:59:11;;;;;;;17.05;5.35;;;;;;;7.88;92.40;98962.59;5029171;28;20053;-79
2023/01/05 11:01:41;;;;;;;18.75;5.30;;;;;;;7.96;93.21;98980.84;5031674;28;20037;-80
2023/01/05 11:04:12;;;;;;;22.35;6.03;;;;;;;8.06;92.54;98973.13;5027302;28;20025;-80
2023/01/05 11:06:37;;;;;;;20.13;5.40;;;;;;;7.95;92.80;98957.16;5030421;28;20484;-80
2023/01/05 11:09:11;;;;;;;18.30;6.68;;;;;;;7.90;92.70;98962.34;5012111;28;20033;-80
2023/01/05 11:11:37;;;;;;;18.63;5.38;;;;;;;8.06;92.49;98980.31;5028381;28;20035;-80
2023/01/05 11:14:04;;;;;;;12.77;5.65;;;;;;;8.04;92.95;98982.34;5029810;28;20125;-79
2023/01/05 11:16:33;;;;;;;16.95;6.07;;;;;;;8.14;92.38;98982.63;5027186;28;20370;-80
2023/01/05 11:19:11;;;;;;;27.17;7.20;;;;;;;8.03;93.23;98972.78;5030390;28;20041;-80
2023/01/05 11:21:38;;;;;;;16.88;5.55;;;;;;;8.01;93.09;98978.34;5028403;28;20039;-80
2023/01/05 11:24:04;;;;;;;15.98;5.72;;;;;;;7.97;93.27;98979.78;5029773;28;20077;-80
2023/01/05 11:26:35;;;;;;;25.60;8.23;;;;;;;8.00;93.38;98984.66;5029280;28;20032;-80
2023/01/05 11:29:06;;;;;;;21.35;6.30;;;;;;;8.02;93.09;98982.59;5030742;28;20237;-80
2023/01/05 11:31:36;;;;;;;16.35;6.40;;;;;;;8.06;93.72;98989.06;5029972;28;20477;-80
2023/01/05 11:34:27;;;;;;;13.85;6.45;;;;;;;8.11;92.79;98975.09;5030743;28;20041;-80
2023/01/05 11:37:12;;;;;;;17.30;6.95;;;;;;;8.06;93.33;98977.66;5029444;28;20680;-80
2023/01/05 11:39:39;;;;;;;13.75;5.78;;;;;;;8.03;93.38;98989.53;5031520;28;20056;-80
2023/01/05 11:42:23;;;;;;;19.40;6.85;;;;;;;8.03;93.49;99000.19;5030878;28;20477;-79
2023/01/05 11:44:53;;;;;;;23.75;7.65;;;;;;;8.09;93.79;98975.31;5026334;28;20017;-80
2023/01/05 11:47:29;;;;;;;9.57;5.38;;;;;;;8.15;93.35;98998.34;5010584;28;20409;-80
2023/01/05 11:50:03;;;;;;;19.60;5.63;;;;;;;8.20;93.44;99002.97;5024686;28;20040;-79
2023/01/05 11:52:34;;;;;;;19.33;6.43;;;;;;;8.24;93.21;98998.81;5028959;28;21985;-79
2023/01/05 11:55:18;;;;;;;21.02;6.32;;;;;;;8.16;92.92;98991.16;5028959;28;20121;-80
2023/01/05 11:57:44;;;;;;;20.05;7.55;;;;;;;8.19;92.36;98988.84;5025584;28;20029;-80
2023/01/05 12:00:23;;;;;;;17.60;6.60;;;;;;;8.11;93.27;98991.03;5027349;28;20041;-80
2023/01/05 12:03:03;;;;;;;19.08;6.18;;;;;;;8.20;93.16;99003.78;5019332;28;20387;-80
2023/01/05 12:06:12;;;;;;;10.57;4.70;;;;;;;8.16;92.96;98999.97;5024085;28;20026;-80
2023/01/05 12:08:58;;;;;;;18.02;6.03;;;;;;;8.28;92.46;99000.00;4966343;28;20034;-81
2023/01/05 12:11:31;;;;;;;13.40;5.75;;;;;;;8.26;92.49;98989.59;5018487;28;20422;-81
2023/01/05 12:13:56;;;;;;;17.83;7.35;;;;;;;8.15;93.34;99000.16;5017716;28;20396;-80